createdAt,value
2022-12-01T00:00:24.989Z,4.69
2022-12-01T00:03:33.688Z,4.66
2022-12-01T00:06:38.318Z,4.71
2022-12-01T00:10:01.181Z,4.74
2022-12-01T00:13:06.795Z,4.71
2022-12-01T00:16:17.226Z,4.68
2022-12-01T00:19:26.345Z,4.70
2022-12-01T00:22:31.378Z,4.71
2022-12-01T00:25:35.822Z,4.71
2022-12-01T00:28:40.451Z,4.69
2022-12-01T00:31:44.838Z,4.67
2022-12-01T00:34:49.104Z,4.67
2022-12-01T00:37:54.430Z,4.65
2022-12-01T00:40:58.674Z,4.59
2022-12-01T00:44:03.146Z,4.65
2022-12-01T00:47:07.562Z,4.57
2022-12-01T00:50:12.264Z,4.58
2022-12-01T00:53:16.775Z,4.59
2022-12-01T00:56:21.357Z,4.58
2022-12-01T00:59:26.324Z,4.64
2022-12-01T01:02:30.874Z,4.58
2022-12-01T01:05:41.569Z,4.59
2022-12-01T01:08:46.166Z,4.61
2022-12-01T01:11:50.665Z,4.51
2022-12-01T01:14:55.194Z,4.52
2022-12-01T01:17:59.700Z,4.56
2022-12-01T01:21:08.825Z,4.55
2022-12-01T01:24:13.215Z,4.52
2022-12-01T01:27:17.843Z,4.62
2022-12-01T01:30:22.307Z,4.67
2022-12-01T01:33:26.635Z,4.65
2022-12-01T01:36:31.113Z,4.62
2022-12-01T01:39:35.765Z,4.59
2022-12-01T01:42:40.247Z,4.65
2022-12-01T01:45:45.078Z,4.66
2022-12-01T01:49:01.632Z,4.61
2022-12-01T01:52:06.171Z,4.54
2022-12-01T01:55:11.707Z,4.65
2022-12-01T01:58:16.475Z,4.65
2022-12-01T02:01:22.478Z,4.57
2022-12-01T02:04:29.289Z,4.55
2022-12-01T02:07:33.948Z,4.59
2022-12-01T02:10:59.834Z,4.56
2022-12-01T02:14:18.044Z,4.54
2022-12-01T02:17:41.538Z,4.54
2022-12-01T02:21:42.079Z,4.54
2022-12-01T02:24:59.737Z,4.58
2022-12-01T02:28:24.149Z,4.61
2022-12-01T02:32:00.406Z,4.56
2022-12-01T02:35:23.371Z,4.53
2022-12-01T02:39:23.635Z,4.50
2022-12-01T02:42:53.459Z,4.54
2022-12-01T02:46:21.911Z,4.51
2022-12-01T02:49:42.077Z,4.59
2022-12-01T02:52:46.825Z,4.56
2022-12-01T02:55:58.690Z,4.51
2022-12-01T02:59:11.293Z,4.50
2022-12-01T03:03:00.730Z,4.51
2022-12-01T03:06:51.544Z,4.48
2022-12-01T03:10:31.500Z,4.54
2022-12-01T03:13:59.207Z,4.50
2022-12-01T03:17:20.320Z,4.43
2022-12-01T03:20:50.488Z,4.42
2022-12-01T03:24:19.378Z,4.41
2022-12-01T03:27:29.976Z,4.41
2022-12-01T03:30:37.670Z,4.45
2022-12-01T03:33:57.480Z,4.40
2022-12-01T03:37:14.446Z,4.40
2022-12-01T03:40:25.587Z,4.37
2022-12-01T03:43:36.077Z,4.34
2022-12-01T03:47:06.329Z,4.39
2022-12-01T03:50:14.092Z,4.46
2022-12-01T03:53:27.431Z,4.50
2022-12-01T03:56:55.110Z,4.45
2022-12-01T03:59:59.911Z,4.37
2022-12-01T04:03:05.700Z,4.39
2022-12-01T04:06:10.564Z,4.39
2022-12-01T04:09:15.204Z,4.33
2022-12-01T04:12:30.983Z,4.35
2022-12-01T04:15:35.306Z,4.42
2022-12-01T04:18:39.915Z,4.42
2022-12-01T04:21:44.517Z,4.44
2022-12-01T04:24:48.911Z,4.37
2022-12-01T04:27:53.211Z,4.37
2022-12-01T04:30:57.561Z,4.39
2022-12-01T04:34:02.351Z,4.34
2022-12-01T04:37:08.055Z,4.30
2022-12-01T04:40:13.210Z,4.25
2022-12-01T04:43:18.109Z,4.19
2022-12-01T04:46:23.982Z,4.18
2022-12-01T04:49:28.554Z,4.22
2022-12-01T04:52:36.429Z,4.26
2022-12-01T04:55:41.231Z,4.27
2022-12-01T04:58:45.674Z,4.24
2022-12-01T05:01:50.802Z,4.29
2022-12-01T05:04:55.073Z,4.28
2022-12-01T05:07:59.722Z,4.22
2022-12-01T05:11:07.538Z,4.24
2022-12-01T05:14:12.189Z,4.21
2022-12-01T05:17:16.930Z,4.25
2022-12-01T05:20:43.590Z,4.20
2022-12-01T05:23:47.866Z,4.16
2022-12-01T05:26:52.477Z,4.25
2022-12-01T05:29:57.001Z,4.22
2022-12-01T05:33:01.542Z,4.19
2022-12-01T05:36:06.107Z,4.28
2022-12-01T05:39:10.447Z,4.27
2022-12-01T05:42:15.009Z,4.29
2022-12-01T05:45:19.528Z,4.30
2022-12-01T05:48:24.567Z,4.27
2022-12-01T05:51:28.902Z,4.18
2022-12-01T05:54:33.521Z,4.13
2022-12-01T05:57:38.345Z,4.12
2022-12-01T06:00:46.022Z,4.09
2022-12-01T06:03:52.421Z,4.09
2022-12-01T06:06:57.171Z,4.09
2022-12-01T06:10:02.490Z,4.05
2022-12-01T06:13:06.880Z,4.08
2022-12-01T06:16:11.299Z,4.08
2022-12-01T06:19:15.724Z,4.10
2022-12-01T06:22:20.098Z,4.08
2022-12-01T06:25:24.492Z,4.07
2022-12-01T06:28:30.128Z,4.06
2022-12-01T06:31:34.507Z,4.04
2022-12-01T06:34:38.830Z,3.99
2022-12-01T06:37:43.267Z,4.06
2022-12-01T06:40:47.900Z,4.01
2022-12-01T06:43:52.149Z,4.02
2022-12-01T06:46:57.734Z,3.98
2022-12-01T06:50:03.249Z,3.99
2022-12-01T06:53:07.405Z,4.02
2022-12-01T06:56:11.752Z,4.02
2022-12-01T06:59:16.946Z,4.00
2022-12-01T07:02:22.286Z,3.96
2022-12-01T07:05:27.194Z,4.02
2022-12-01T07:08:32.577Z,3.98
2022-12-01T07:11:37.098Z,3.98
2022-12-01T07:14:42.509Z,4.05
2022-12-01T07:17:47.260Z,4.03
2022-12-01T07:20:51.579Z,4.02
2022-12-01T07:23:55.820Z,4.05
2022-12-01T07:27:00.040Z,4.08
2022-12-01T07:30:05.386Z,4.06
2022-12-01T07:33:09.649Z,4.08
2022-12-01T07:36:15.369Z,4.07
2022-12-01T07:39:19.747Z,4.02
2022-12-01T07:42:24.117Z,4.10
2022-12-01T07:45:28.458Z,4.08
2022-12-01T07:48:32.902Z,4.06
2022-12-01T07:51:37.274Z,4.06
2022-12-01T07:54:41.778Z,4.08
2022-12-01T07:57:45.993Z,4.07
2022-12-01T08:00:50.344Z,4.09
2022-12-01T08:03:57.957Z,4.12
2022-12-01T08:07:03.279Z,4.17
2022-12-01T08:10:08.283Z,4.22
2022-12-01T08:13:17.157Z,4.24
2022-12-01T08:16:24.275Z,4.23
2022-12-01T08:19:29.372Z,4.25
2022-12-01T08:22:33.568Z,4.22
2022-12-01T08:25:38.066Z,4.25
2022-12-01T08:28:43.606Z,4.24
2022-12-01T08:31:48.717Z,4.30
2022-12-01T08:34:53.867Z,4.27
2022-12-01T08:37:58.620Z,4.20
2022-12-01T08:41:09.160Z,4.22
2022-12-01T08:44:13.687Z,4.22
2022-12-01T08:47:19.035Z,4.20
2022-12-01T08:50:23.771Z,4.22
2022-12-01T08:53:28.339Z,4.19
2022-12-01T08:56:41.845Z,4.25
2022-12-01T08:59:47.046Z,4.25
2022-12-01T09:02:51.877Z,4.25
2022-12-01T09:06:03.434Z,4.33
2022-12-01T09:09:11.397Z,4.31
2022-12-01T09:12:16.118Z,4.24
2022-12-01T09:15:20.776Z,4.30
2022-12-01T09:18:25.798Z,4.35
2022-12-01T09:21:32.785Z,4.35
2022-12-01T09:24:37.908Z,4.38
2022-12-01T09:27:43.412Z,4.43
2022-12-01T09:30:47.991Z,4.34
2022-12-01T09:34:04.028Z,4.36
2022-12-01T09:37:08.604Z,4.36
2022-12-01T09:40:15.662Z,4.36
2022-12-01T09:43:32.988Z,4.31
2022-12-01T09:47:04.448Z,4.29
2022-12-01T09:50:24.022Z,4.26
2022-12-01T09:53:29.664Z,4.21
2022-12-01T09:56:46.465Z,4.25
2022-12-01T09:59:52.646Z,4.25
2022-12-01T10:03:17.911Z,4.26
2022-12-01T10:06:36.248Z,4.30
2022-12-01T10:09:57.536Z,4.36
2022-12-01T10:13:02.406Z,4.41
2022-12-01T10:16:15.814Z,4.50
2022-12-01T10:20:05.878Z,4.51
2022-12-01T10:23:43.850Z,4.58
2022-12-01T10:27:36.050Z,4.68
2022-12-01T10:30:52.115Z,4.74
2022-12-01T10:34:14.507Z,4.70
2022-12-01T10:37:24.475Z,4.72
2022-12-01T10:40:29.730Z,4.74
2022-12-01T10:43:46.413Z,4.74
2022-12-01T10:46:55.718Z,4.76
2022-12-01T10:50:00.735Z,4.76
2022-12-01T10:53:05.252Z,4.79
2022-12-01T10:56:20.280Z,4.89
2022-12-01T11:00:01.230Z,4.99
2022-12-01T11:03:06.627Z,4.97
2022-12-01T11:06:11.948Z,5.03
2022-12-01T11:09:26.639Z,5.08
2022-12-01T11:12:33.025Z,5.09
2022-12-01T11:15:51.760Z,5.09
2022-12-01T11:19:28.581Z,5.07
2022-12-01T11:22:36.479Z,5.13
2022-12-01T11:25:41.370Z,5.10
2022-12-01T11:29:00.436Z,5.11
2022-12-01T11:32:18.402Z,5.03
2022-12-01T11:35:32.001Z,5.03
2022-12-01T11:38:36.446Z,5.05
2022-12-01T11:41:42.656Z,5.04
2022-12-01T11:45:16.752Z,5.11
2022-12-01T11:48:29.924Z,5.12
2022-12-01T11:51:39.129Z,5.30
2022-12-01T11:55:22.920Z,5.38
2022-12-01T11:58:27.483Z,5.47
2022-12-01T12:01:56.233Z,5.53
2022-12-01T12:05:25.687Z,5.50
2022-12-01T12:08:47.686Z,5.53
2022-12-01T12:12:28.752Z,5.44
2022-12-01T12:16:00.791Z,5.39
2022-12-01T12:19:34.248Z,5.35
2022-12-01T12:24:02.054Z,5.39
2022-12-01T12:27:19.312Z,5.42
2022-12-01T12:30:34.192Z,5.43
2022-12-01T12:34:22.362Z,5.39
2022-12-01T12:37:49.877Z,5.32
2022-12-01T12:41:08.505Z,5.37
2022-12-01T12:44:39.260Z,5.30
2022-12-01T12:48:11.915Z,5.26
2022-12-01T12:51:39.228Z,5.28
2022-12-01T12:55:02.398Z,5.37
2022-12-01T12:58:24.009Z,5.34
2022-12-01T13:01:57.631Z,5.27
2022-12-01T13:05:49.234Z,5.23
2022-12-01T13:09:02.803Z,5.21
2022-12-01T13:12:31.293Z,5.22
2022-12-01T13:15:37.318Z,5.19
2022-12-01T13:18:49.537Z,5.23
2022-12-01T13:21:54.970Z,5.25
2022-12-01T13:24:59.462Z,5.21
2022-12-01T13:28:13.197Z,5.07
2022-12-01T13:31:20.385Z,5.09
2022-12-01T13:34:42.088Z,5.06
2022-12-01T13:37:47.071Z,5.07
2022-12-01T13:41:11.759Z,5.09
2022-12-01T13:44:24.694Z,5.05
2022-12-01T13:47:47.094Z,5.11
2022-12-01T13:51:02.090Z,5.06
2022-12-01T13:54:30.435Z,5.00
2022-12-01T13:58:11.222Z,4.86
2022-12-01T14:01:22.717Z,4.86
2022-12-01T14:04:29.079Z,4.87
2022-12-01T14:07:38.267Z,4.88
2022-12-01T14:11:06.834Z,4.88
2022-12-01T14:14:26.261Z,4.81
2022-12-01T14:17:38.080Z,4.80
2022-12-01T14:20:48.715Z,4.84
2022-12-01T14:24:06.434Z,4.82
2022-12-01T14:27:12.144Z,4.81
2022-12-01T14:30:48.085Z,4.74
2022-12-01T14:34:12.128Z,4.70
2022-12-01T14:37:26.231Z,4.64
2022-12-01T14:40:31.225Z,4.55
2022-12-01T14:43:57.089Z,4.50
2022-12-01T14:47:12.708Z,4.39
2022-12-01T14:50:49.366Z,4.39
2022-12-01T14:53:57.178Z,4.33
2022-12-01T14:57:06.842Z,4.30
2022-12-01T15:00:19.144Z,4.28
2022-12-01T15:03:30.541Z,4.25
2022-12-01T15:06:38.039Z,4.22
2022-12-01T15:10:01.839Z,4.19
2022-12-01T15:13:54.501Z,4.15
2022-12-01T15:16:59.644Z,4.13
2022-12-01T15:20:24.951Z,4.14
2022-12-01T15:23:29.658Z,4.15
2022-12-01T15:26:47.814Z,4.13
2022-12-01T15:29:52.745Z,4.16
2022-12-01T15:32:58.438Z,4.12
2022-12-01T15:36:03.593Z,4.11
2022-12-01T15:39:18.272Z,4.10
2022-12-01T15:42:38.268Z,4.13
2022-12-01T15:45:50.907Z,4.14
2022-12-01T15:49:27.393Z,4.11
2022-12-01T15:52:43.663Z,4.11
2022-12-01T15:55:54.115Z,4.06
2022-12-01T15:59:41.530Z,4.15
2022-12-01T16:02:57.592Z,4.21
2022-12-01T16:06:02.343Z,4.11
2022-12-01T16:09:25.229Z,4.16
2022-12-01T16:12:33.810Z,4.17
2022-12-01T16:15:44.030Z,4.12
2022-12-01T16:18:55.878Z,4.11
2022-12-01T16:22:11.480Z,4.13
2022-12-01T16:25:33.965Z,4.03
2022-12-01T16:28:40.905Z,4.04
2022-12-01T16:32:12.590Z,3.98
2022-12-01T16:35:23.433Z,4.01
2022-12-01T16:38:29.088Z,3.92
2022-12-01T16:41:38.431Z,3.94
2022-12-01T16:44:45.632Z,3.91
2022-12-01T16:47:50.400Z,3.95
2022-12-01T16:50:55.482Z,3.97
2022-12-01T16:54:00.673Z,3.96
2022-12-01T16:57:05.051Z,3.90
2022-12-01T17:00:10.955Z,3.89
2022-12-01T17:03:17.538Z,3.92
2022-12-01T17:06:22.754Z,3.84
2022-12-01T17:09:27.598Z,3.81
2022-12-01T17:12:32.641Z,3.87
2022-12-01T17:15:46.251Z,3.88
2022-12-01T17:18:51.010Z,3.88
2022-12-01T17:21:57.018Z,3.84
2022-12-01T17:25:03.094Z,3.81
2022-12-01T17:28:08.316Z,3.84
2022-12-01T17:31:13.844Z,3.88
2022-12-01T17:34:18.474Z,3.93
2022-12-01T17:37:22.832Z,3.89
2022-12-01T17:40:27.064Z,3.90
2022-12-01T17:43:33.156Z,3.93
2022-12-01T17:46:38.589Z,3.84
2022-12-01T17:49:43.313Z,3.81
2022-12-01T17:52:47.528Z,3.79
2022-12-01T17:55:51.863Z,3.78
2022-12-01T17:58:56.085Z,3.74
2022-12-01T18:02:00.592Z,3.75
2022-12-01T18:05:05.665Z,3.73
2022-12-01T18:08:10.216Z,3.77
2022-12-01T18:11:16.891Z,3.71
2022-12-01T18:14:21.477Z,3.68
2022-12-01T18:17:26.709Z,3.70
2022-12-01T18:20:31.387Z,3.74
2022-12-01T18:23:37.024Z,3.69
2022-12-01T18:26:41.580Z,3.74
2022-12-01T18:29:45.765Z,3.72
2022-12-01T18:32:49.981Z,3.69
2022-12-01T18:35:54.309Z,3.72
2022-12-01T18:39:00.976Z,3.68
2022-12-01T18:42:05.654Z,3.68
2022-12-01T18:45:10.475Z,3.64
2022-12-01T18:48:14.555Z,3.63
2022-12-01T18:51:20.694Z,3.69
2022-12-01T18:54:25.546Z,3.64
2022-12-01T18:57:30.623Z,3.64
2022-12-01T19:00:35.873Z,3.68
2022-12-01T19:03:40.623Z,3.67
2022-12-01T19:06:46.694Z,3.68
2022-12-01T19:09:51.313Z,3.72
2022-12-01T19:12:56.171Z,3.76
2022-12-01T19:16:07.773Z,3.70
2022-12-01T19:19:12.594Z,3.67
2022-12-01T19:22:16.880Z,3.72
2022-12-01T19:25:21.429Z,3.70
2022-12-01T19:28:25.634Z,3.77
2022-12-01T19:31:30.006Z,3.75
2022-12-01T19:34:34.658Z,3.70
2022-12-01T19:37:39.388Z,3.77
2022-12-01T19:40:43.934Z,3.84
2022-12-01T19:43:48.657Z,3.91
2022-12-01T19:46:52.965Z,3.83
2022-12-01T19:49:57.350Z,3.80
2022-12-01T19:53:03.073Z,3.75
2022-12-01T19:56:08.316Z,3.80
2022-12-01T19:59:14.890Z,3.83
2022-12-01T20:02:22.955Z,3.79
2022-12-01T20:05:33.089Z,3.80
2022-12-01T20:08:38.524Z,3.82
2022-12-01T20:11:43.070Z,3.84
2022-12-01T20:14:47.963Z,3.76
2022-12-01T20:17:53.780Z,3.69
2022-12-01T20:21:20.607Z,3.73
2022-12-01T20:24:25.378Z,3.75
2022-12-01T20:27:29.854Z,3.76
2022-12-01T20:30:34.011Z,3.69
2022-12-01T20:33:40.282Z,3.72
2022-12-01T20:36:45.345Z,3.69
2022-12-01T20:39:49.734Z,3.75
2022-12-01T20:42:54.445Z,3.74
2022-12-01T20:45:58.983Z,3.72
2022-12-01T20:49:04.080Z,3.72
2022-12-01T20:52:08.698Z,3.68
2022-12-01T20:55:12.965Z,3.69
2022-12-01T20:58:33.205Z,3.71
2022-12-01T21:01:40.647Z,3.74
2022-12-01T21:04:45.078Z,3.73
2022-12-01T21:07:49.689Z,3.76
2022-12-01T21:10:54.432Z,3.74
2022-12-01T21:13:59.377Z,3.77
2022-12-01T21:18:20.730Z,3.83
2022-12-01T21:21:29.650Z,3.81
2022-12-01T21:24:38.004Z,3.76
2022-12-01T21:27:48.749Z,3.74
2022-12-01T21:31:10.334Z,3.69
2022-12-01T21:34:24.521Z,3.69
2022-12-01T21:37:29.216Z,3.67
2022-12-01T21:40:33.756Z,3.67
2022-12-01T21:43:38.712Z,3.71
2022-12-01T21:46:44.753Z,3.61
2022-12-01T21:49:56.386Z,3.68
2022-12-01T21:53:01.204Z,3.63
2022-12-01T21:56:08.004Z,3.62
2022-12-01T21:59:23.759Z,3.63
2022-12-01T22:02:49.617Z,3.59
2022-12-01T22:09:38.831Z,3.55
2022-12-01T22:12:43.384Z,3.53
2022-12-01T22:15:47.664Z,3.55
2022-12-01T22:19:00.646Z,3.51
2022-12-01T22:22:11.325Z,3.48
2022-12-01T22:25:27.413Z,3.46
2022-12-01T22:28:31.830Z,3.44
2022-12-01T22:31:36.231Z,3.40
2022-12-01T22:34:55.037Z,3.44
2022-12-01T22:38:08.767Z,3.38
2022-12-01T22:41:20.877Z,3.37
2022-12-01T22:44:27.804Z,3.39
2022-12-01T22:47:33.174Z,3.38
2022-12-01T22:50:37.647Z,3.35
2022-12-01T22:53:45.353Z,3.34
2022-12-01T22:57:35.116Z,3.31
2022-12-01T23:00:39.992Z,3.28
2022-12-01T23:03:44.536Z,3.23
2022-12-01T23:06:54.676Z,3.20
2022-12-01T23:10:30.895Z,3.15
2022-12-01T23:13:35.241Z,3.18
2022-12-01T23:16:40.479Z,3.19
2022-12-01T23:19:45.370Z,3.11
2022-12-01T23:22:55.666Z,3.08
2022-12-01T23:26:03.775Z,3.06
2022-12-01T23:29:08.166Z,3.07
2022-12-01T23:32:12.946Z,3.07
2022-12-01T23:35:18.640Z,3.10
2022-12-01T23:38:29.307Z,3.05
2022-12-01T23:41:44.797Z,3.02
2022-12-01T23:44:49.696Z,3.05
2022-12-01T23:47:56.611Z,2.97
2022-12-01T23:51:01.625Z,2.96
2022-12-01T23:54:26.926Z,2.92
2022-12-01T23:57:31.675Z,2.95
